createdAt,value
2022-09-28T00:02:24.446Z,99041.13
2022-09-28T00:05:27.594Z,99053.34
2022-09-28T00:08:31.466Z,99054.50
2022-09-28T00:11:34.493Z,99047.28
2022-09-28T00:14:37.240Z,99053.44
2022-09-28T00:17:40.638Z,99052.91
2022-09-28T00:20:43.940Z,99051.41
2022-09-28T00:24:05.421Z,99066.09
2022-09-28T00:27:09.568Z,99055.84
2022-09-28T00:30:13.030Z,99057.78
2022-09-28T00:33:15.554Z,99058.22
2022-09-28T00:36:20.251Z,99054.00
2022-09-28T00:39:23.149Z,99050.06
2022-09-28T00:42:27.516Z,99040.66
2022-09-28T00:45:30.163Z,99024.09
2022-09-28T00:48:38.064Z,99031.25
2022-09-28T00:51:45.445Z,99023.38
2022-09-28T00:54:50.991Z,99028.06
2022-09-28T00:57:58.225Z,99024.09
2022-09-28T01:01:01.400Z,99023.69
2022-09-28T01:04:05.795Z,99028.81
2022-09-28T01:07:09.468Z,99027.59
2022-09-28T01:10:13.400Z,99033.91
2022-09-28T01:13:18.203Z,99036.66
2022-09-28T01:17:01.473Z,99044.16
2022-09-28T01:20:14.605Z,99038.25
2022-09-28T01:23:44.367Z,99050.16
2022-09-28T01:27:05.724Z,99036.34
2022-09-28T01:30:12.190Z,99048.66
2022-09-28T01:33:22.600Z,99050.22
2022-09-28T01:36:27.605Z,99043.91
2022-09-28T01:39:39.759Z,99039.94
2022-09-28T01:42:46.083Z,99039.94
2022-09-28T01:46:00.090Z,99030.47
2022-09-28T01:49:08.260Z,99032.84
2022-09-28T01:52:18.671Z,99033.69
2022-09-28T01:55:39.022Z,99039.28
2022-09-28T01:58:44.932Z,99039.69
2022-09-28T02:01:58.760Z,99042.47
2022-09-28T02:05:37.257Z,99040.91
2022-09-28T02:08:56.712Z,99041.28
2022-09-28T02:12:08.052Z,99041.66
2022-09-28T02:15:23.338Z,99046.44
2022-09-28T02:18:26.328Z,99048.41
2022-09-28T02:21:54.141Z,99061.47
2022-09-28T02:25:08.033Z,99074.91
2022-09-28T02:28:13.697Z,99074.09
2022-09-28T02:31:16.778Z,99069.00
2022-09-28T02:34:19.605Z,99067.41
2022-09-28T02:37:22.816Z,99074.97
2022-09-28T02:40:33.587Z,99065.06
2022-09-28T02:43:39.550Z,99062.69
2022-09-28T02:46:50.277Z,99065.06
2022-09-28T02:50:06.277Z,99063.47
2022-09-28T02:53:08.919Z,99069.00
2022-09-28T02:56:26.557Z,99073.34
2022-09-28T02:59:57.199Z,99070.50
2022-09-28T03:03:12.901Z,99066.50
2022-09-28T03:06:23.793Z,99068.41
2022-09-28T03:09:39.927Z,99066.81
2022-09-28T03:12:46.731Z,99064.44
2022-09-28T03:15:50.004Z,99063.25
2022-09-28T03:18:52.846Z,99054.56
2022-09-28T03:21:55.880Z,99053.22
2022-09-28T03:24:58.534Z,99066.62
2022-09-28T03:28:01.749Z,99074.06
2022-09-28T03:31:05.632Z,99073.31
2022-09-28T03:34:08.600Z,99082.31
2022-09-28T03:37:11.347Z,99089.31
2022-09-28T03:40:14.425Z,99089.31
2022-09-28T03:43:17.033Z,99070.91
2022-09-28T03:46:20.709Z,99069.28
2022-09-28T03:49:23.510Z,99073.19
2022-09-28T03:52:26.542Z,99070.84
2022-09-28T03:55:29.194Z,99068.44
2022-09-28T03:58:32.697Z,99067.50
2022-09-28T04:01:35.505Z,99076.81
2022-09-28T04:04:38.664Z,99063.44
2022-09-28T04:07:41.419Z,99066.25
2022-09-28T04:10:44.308Z,99069.91
2022-09-28T04:13:51.001Z,99065.97
2022-09-28T04:16:55.015Z,99069.09
2022-09-28T04:19:58.217Z,99079.69
2022-09-28T04:23:01.403Z,99075.19
2022-09-28T04:26:06.918Z,99075.53
2022-09-28T04:29:18.275Z,99078.06
2022-09-28T04:32:22.465Z,99076.50
2022-09-28T04:35:26.618Z,99081.00
2022-09-28T04:38:48.710Z,99062.19
2022-09-28T04:41:55.456Z,99058.94
2022-09-28T04:44:59.011Z,99055.00
2022-09-28T04:48:02.325Z,99065.28
2022-09-28T04:51:05.183Z,99059.88
2022-09-28T04:54:08.538Z,99059.44
2022-09-28T04:57:11.211Z,99062.84
2022-09-28T05:00:14.619Z,99057.94
2022-09-28T05:03:18.941Z,99055.00
2022-09-28T05:06:23.199Z,99061.03
2022-09-28T05:09:26.999Z,99057.06
2022-09-28T05:12:29.992Z,99052.28
2022-09-28T05:15:34.782Z,99058.63
2022-09-28T05:18:38.010Z,99054.66
2022-09-28T05:21:45.181Z,99067.25
2022-09-28T05:24:48.118Z,99063.63
2022-09-28T05:27:57.895Z,99067.28
2022-09-28T05:31:05.011Z,99068.88
2022-09-28T05:34:09.451Z,99063.50
2022-09-28T05:37:12.508Z,99067.16
2022-09-28T05:40:16.247Z,99067.72
2022-09-28T05:43:19.394Z,99057.53
2022-09-28T05:46:24.002Z,99061.94
2022-09-28T05:49:30.397Z,99060.88
2022-09-28T05:52:36.221Z,99057.75
2022-09-28T05:55:40.204Z,99047.91
2022-09-28T05:58:42.781Z,99041.69
2022-09-28T06:01:46.892Z,99042.47
2022-09-28T06:04:51.344Z,99039.41
2022-09-28T06:07:58.093Z,99042.25
2022-09-28T06:11:01.641Z,99038.81
2022-09-28T06:14:05.407Z,99030.53
2022-09-28T06:17:08.627Z,99036.12
2022-09-28T06:20:11.982Z,99032.22
2022-09-28T06:23:21.676Z,99032.22
2022-09-28T06:26:24.960Z,99024.75
2022-09-28T06:29:28.001Z,99017.56
2022-09-28T06:32:30.986Z,99014.94
2022-09-28T06:35:35.211Z,99027.53
2022-09-28T06:38:38.500Z,99014.41
2022-09-28T06:41:42.001Z,99009.78
2022-09-28T06:44:47.235Z,99010.53
2022-09-28T06:48:02.777Z,99011.34
2022-09-28T06:51:06.510Z,99015.34
2022-09-28T06:54:12.034Z,99013.31
2022-09-28T06:57:15.084Z,99006.72
2022-09-28T07:00:18.237Z,99008.56
2022-09-28T07:03:22.924Z,98999.53
2022-09-28T07:06:26.970Z,98998.62
2022-09-28T07:09:35.748Z,98996.38
2022-09-28T07:12:42.719Z,98996.47
2022-09-28T07:15:47.794Z,98995.81
2022-09-28T07:18:50.860Z,98990.62
2022-09-28T07:22:04.774Z,99003.63
2022-09-28T07:25:10.832Z,98997.78
2022-09-28T07:28:15.399Z,99005.13
2022-09-28T07:31:20.315Z,98996.00
2022-09-28T07:34:24.796Z,98992.91
2022-09-28T07:37:29.174Z,98992.06
2022-09-28T07:40:52.511Z,98989.53
2022-09-28T07:43:56.294Z,98984.75
2022-09-28T07:46:59.053Z,98988.13
2022-09-28T07:50:02.875Z,98992.72
2022-09-28T07:53:08.667Z,98994.19
2022-09-28T07:56:14.244Z,98990.31
2022-09-28T07:59:17.844Z,98991.97
2022-09-28T08:02:22.432Z,98996.53
2022-09-28T08:05:25.422Z,98988.81
2022-09-28T08:08:30.130Z,98980.97
2022-09-28T08:11:34.840Z,98990.62
2022-09-28T08:14:37.818Z,98992.97
2022-09-28T08:17:50.092Z,98989.66
2022-09-28T08:21:13.341Z,98976.16
2022-09-28T08:24:19.392Z,98961.16
2022-09-28T08:27:22.301Z,98949.25
2022-09-28T08:30:25.421Z,98938.91
2022-09-28T08:33:28.825Z,98938.97
2022-09-28T08:36:43.560Z,98948.00
2022-09-28T08:39:47.120Z,98931.25
2022-09-28T08:42:56.851Z,98922.75
2022-09-28T08:46:01.627Z,98933.09
2022-09-28T08:49:24.910Z,98938.56
2022-09-28T08:52:39.224Z,98930.28
2022-09-28T08:55:45.442Z,98935.94
2022-09-28T08:58:56.914Z,98933.50
2022-09-28T09:02:04.126Z,98935.69
2022-09-28T09:05:15.481Z,98934.06
2022-09-28T09:08:26.136Z,98938.44
2022-09-28T09:12:00.990Z,98943.44
2022-09-28T09:15:43.533Z,98939.97
2022-09-28T09:18:59.458Z,98935.56
2022-09-28T09:22:15.415Z,98941.03
2022-09-28T09:25:38.623Z,98942.88
2022-09-28T09:29:03.186Z,98937.94
2022-09-28T09:32:21.064Z,98940.44
2022-09-28T09:35:30.821Z,98935.44
2022-09-28T09:38:54.905Z,98934.25
2022-09-28T09:42:30.740Z,98942.63
2022-09-28T09:45:47.032Z,98936.88
2022-09-28T09:48:56.537Z,98944.72
2022-09-28T09:52:55.923Z,98944.59
2022-09-28T09:56:08.754Z,98940.53
2022-09-28T09:59:19.388Z,98942.72
2022-09-28T10:02:26.500Z,98936.41
2022-09-28T10:05:34.934Z,98935.00
2022-09-28T10:08:50.473Z,98931.56
2022-09-28T10:11:54.184Z,98920.78
2022-09-28T10:14:56.988Z,98921.97
2022-09-28T10:18:06.943Z,98917.91
2022-09-28T10:21:15.734Z,98925.78
2022-09-28T10:24:29.532Z,98907.69
2022-09-28T10:27:35.991Z,98913.25
2022-09-28T10:30:42.242Z,98911.34
2022-09-28T10:33:44.980Z,98918.16
2022-09-28T10:36:56.348Z,98913.97
2022-09-28T10:39:59.376Z,98903.72
2022-09-28T10:43:05.567Z,98907.97
2022-09-28T10:46:10.261Z,98903.25
2022-09-28T10:49:17.715Z,98899.31
2022-09-28T10:52:31.456Z,98894.00
2022-09-28T10:55:37.250Z,98882.91
2022-09-28T10:58:42.306Z,98890.06
2022-09-28T11:01:46.021Z,98881.97
2022-09-28T11:04:56.955Z,98887.53
2022-09-28T11:08:05.797Z,98875.03
2022-09-28T11:11:12.101Z,98877.25
2022-09-28T11:14:28.082Z,98872.84
2022-09-28T11:17:40.760Z,98868.53
2022-09-28T11:20:45.608Z,98865.34
2022-09-28T11:23:57.359Z,98880.44
2022-09-28T11:27:00.688Z,98860.16
2022-09-28T11:30:03.679Z,98855.91
2022-09-28T11:33:20.864Z,98844.41
2022-09-28T11:37:13.715Z,98849.38
2022-09-28T11:40:23.778Z,98834.56
2022-09-28T11:43:41.863Z,98823.34
2022-09-28T11:47:02.456Z,98816.72
2022-09-28T11:50:24.609Z,98818.69
2022-09-28T11:53:35.316Z,98817.50
2022-09-28T11:56:45.755Z,98817.25
2022-09-28T12:00:00.217Z,98818.28
2022-09-28T12:03:16.628Z,98816.09
2022-09-28T12:06:29.644Z,98811.09
2022-09-28T12:09:43.657Z,98797.00
2022-09-28T12:12:54.228Z,98786.28
2022-09-28T12:19:41.893Z,98781.13
2022-09-28T12:23:21.243Z,98780.47
2022-09-28T12:26:41.918Z,98788.59
2022-09-28T12:29:50.728Z,98763.91
2022-09-28T12:32:57.280Z,98771.59
2022-09-28T12:36:30.569Z,98778.16
2022-09-28T12:39:57.739Z,98782.66
2022-09-28T12:43:28.207Z,98777.38
2022-09-28T12:46:49.192Z,98784.38
2022-09-28T12:53:49.119Z,98786.09
2022-09-28T12:57:15.649Z,98768.91
2022-09-28T13:00:25.381Z,98787.34
2022-09-28T13:03:58.544Z,98776.88
2022-09-28T13:07:06.427Z,98776.25
2022-09-28T13:10:48.287Z,98761.25
2022-09-28T13:14:14.727Z,98767.50
2022-09-28T13:17:54.795Z,98778.00
2022-09-28T13:21:06.987Z,98771.91
2022-09-28T13:24:31.738Z,98765.97
2022-09-28T13:27:40.758Z,98773.06
2022-09-28T13:30:45.379Z,98765.16
2022-09-28T13:33:50.680Z,98770.25
2022-09-28T13:37:24.547Z,98768.91
2022-09-28T13:41:06.040Z,98759.72
2022-09-28T13:44:16.795Z,98762.88
2022-09-28T13:47:21.038Z,98762.88
2022-09-28T13:50:45.522Z,98759.09
2022-09-28T13:54:47.658Z,98766.72
2022-09-28T13:58:00.670Z,98770.22
2022-09-28T14:01:11.758Z,98761.47
2022-09-28T14:04:20.545Z,98753.06
2022-09-28T14:10:54.066Z,98754.66
2022-09-28T14:14:08.582Z,98745.09
2022-09-28T14:17:29.448Z,98744.53
2022-09-28T14:20:35.504Z,98738.91
2022-09-28T14:23:59.024Z,98718.22
2022-09-28T14:27:20.953Z,98742.59
2022-09-28T14:30:28.187Z,98726.94
2022-09-28T14:33:34.614Z,98727.75
2022-09-28T14:37:02.075Z,98720.84
2022-09-28T14:40:36.440Z,98714.59
2022-09-28T14:43:45.303Z,98719.31
2022-09-28T14:46:49.519Z,98716.19
2022-09-28T14:50:01.058Z,98722.69
2022-09-28T14:53:13.679Z,98730.97
2022-09-28T14:56:18.365Z,98731.88
2022-09-28T14:59:22.850Z,98727.53
2022-09-28T15:02:36.278Z,98732.19
2022-09-28T15:05:44.232Z,98730.31
2022-09-28T15:08:47.343Z,98734.31
2022-09-28T15:11:52.415Z,98735.25
2022-09-28T15:14:59.351Z,98739.38
2022-09-28T15:18:31.902Z,98738.69
2022-09-28T15:21:37.543Z,98730.72
2022-09-28T15:24:40.837Z,98734.06
2022-09-28T15:27:43.887Z,98738.56
2022-09-28T15:30:46.611Z,98729.84
2022-09-28T15:34:08.383Z,98737.00
2022-09-28T15:37:11.849Z,98735.53
2022-09-28T15:40:19.125Z,98731.94
2022-09-28T15:43:33.178Z,98725.22
2022-09-28T15:46:40.788Z,98722.88
2022-09-28T15:50:01.195Z,98728.13
2022-09-28T15:53:08.744Z,98734.97
2022-09-28T15:56:11.977Z,98731.72
2022-09-28T15:59:14.871Z,98736.53
2022-09-28T16:02:25.421Z,98734.06
2022-09-28T16:05:37.362Z,98737.66
2022-09-28T16:08:49.132Z,98736.97
2022-09-28T16:11:52.083Z,98737.88
2022-09-28T16:14:56.467Z,98744.25
2022-09-28T16:18:03.133Z,98745.91
2022-09-28T16:21:24.414Z,98742.00
2022-09-28T16:24:36.004Z,98750.37
2022-09-28T16:27:43.595Z,98751.63
2022-09-28T16:31:04.900Z,98744.47
2022-09-28T16:34:11.378Z,98748.06
2022-09-28T16:37:32.026Z,98746.13
2022-09-28T16:40:35.484Z,98742.00
2022-09-28T16:43:38.607Z,98748.50
2022-09-28T16:46:44.486Z,98744.34
2022-09-28T16:49:48.619Z,98746.38
2022-09-28T16:53:30.278Z,98746.47
2022-09-28T16:56:36.576Z,98749.84
2022-09-28T16:59:39.175Z,98746.38
2022-09-28T17:02:46.631Z,98742.78
2022-09-28T17:05:51.112Z,98740.00
2022-09-28T17:08:58.622Z,98740.88
2022-09-28T17:12:02.257Z,98739.75
2022-09-28T17:15:05.535Z,98744.56
2022-09-28T17:18:08.154Z,98743.34
2022-09-28T17:21:16.619Z,98739.41
2022-09-28T17:24:20.567Z,98747.91
2022-09-28T17:27:23.882Z,98747.03
2022-09-28T17:30:26.529Z,98746.00
2022-09-28T17:33:29.969Z,98760.88
2022-09-28T17:36:34.002Z,98755.84
2022-09-28T17:39:36.958Z,98761.31
2022-09-28T17:42:40.716Z,98746.66
2022-09-28T17:45:46.322Z,98758.63
2022-09-28T17:48:49.250Z,98755.50
2022-09-28T17:51:53.087Z,98742.41
2022-09-28T17:54:55.752Z,98748.19
2022-09-28T17:58:02.415Z,98758.00
2022-09-28T18:01:05.456Z,98757.28
2022-09-28T18:04:23.092Z,98764.88
2022-09-28T18:07:34.722Z,98762.38
2022-09-28T18:10:37.907Z,98770.84
2022-09-28T18:13:40.975Z,98758.28
2022-09-28T18:16:45.663Z,98767.88
2022-09-28T18:19:48.559Z,98764.75
2022-09-28T18:22:53.992Z,98771.72
2022-09-28T18:25:57.128Z,98775.03
2022-09-28T18:29:00.069Z,98777.94
2022-09-28T18:32:03.921Z,98782.13
2022-09-28T18:35:09.033Z,98783.78
2022-09-28T18:38:18.840Z,98789.09
2022-09-28T18:41:21.921Z,98787.28
2022-09-28T18:44:24.944Z,98787.78
2022-09-28T18:47:28.095Z,98799.03
2022-09-28T18:50:30.755Z,98801.12
2022-09-28T18:53:34.938Z,98799.63
2022-09-28T18:56:39.497Z,98793.34
2022-09-28T18:59:43.527Z,98801.44
2022-09-28T19:02:46.320Z,98802.22
2022-09-28T19:05:50.440Z,98799.09
2022-09-28T19:08:56.923Z,98788.28
2022-09-28T19:12:00.156Z,98797.44
2022-09-28T19:15:04.807Z,98795.78
2022-09-28T19:18:07.845Z,98791.41
2022-09-28T19:21:13.212Z,98797.44
2022-09-28T19:24:18.484Z,98800.28
2022-09-28T19:27:21.105Z,98793.66
2022-09-28T19:30:25.098Z,98792.16
2022-09-28T19:33:27.994Z,98796.09
2022-09-28T19:36:30.954Z,98802.53
2022-09-28T19:39:33.561Z,98794.16
2022-09-28T19:42:39.940Z,98789.47
2022-09-28T19:45:42.993Z,98782.41
2022-09-28T19:48:49.342Z,98784.88
2022-09-28T19:52:14.971Z,98782.88
2022-09-28T19:55:19.094Z,98776.16
2022-09-28T19:58:23.234Z,98779.44
2022-09-28T20:01:26.652Z,98784.22
2022-09-28T20:04:30.152Z,98781.00
2022-09-28T20:07:34.886Z,98784.53
2022-09-28T20:10:38.561Z,98792.00
2022-09-28T20:13:41.233Z,98784.66
2022-09-28T20:16:44.707Z,98781.37
2022-09-28T20:19:48.163Z,98782.47
2022-09-28T20:22:51.992Z,98767.91
2022-09-28T20:25:54.860Z,98762.53
2022-09-28T20:28:58.436Z,98762.53
2022-09-28T20:32:01.949Z,98760.56
2022-09-28T20:35:05.982Z,98767.25
2022-09-28T20:38:09.283Z,98753.25
2022-09-28T20:41:13.694Z,98753.59
2022-09-28T20:44:16.767Z,98745.16
2022-09-28T20:47:19.907Z,98743.19
2022-09-28T20:50:23.675Z,98750.31
2022-09-28T20:53:26.932Z,98755.09
2022-09-28T20:56:34.660Z,98754.59
2022-09-28T20:59:37.606Z,98752.94
2022-09-28T21:02:40.302Z,98756.53
2022-09-28T21:05:43.417Z,98755.66
2022-09-28T21:08:46.843Z,98745.47
2022-09-28T21:11:49.781Z,98750.31
2022-09-28T21:14:53.876Z,98751.97
2022-09-28T21:17:56.894Z,98759.47
2022-09-28T21:20:59.548Z,98756.63
2022-09-28T21:24:02.533Z,98743.81
2022-09-28T21:27:05.210Z,98745.38
2022-09-28T21:30:09.417Z,98746.94
2022-09-28T21:33:11.953Z,98749.66
2022-09-28T21:36:14.905Z,98754.00
2022-09-28T21:39:18.388Z,98752.75
2022-09-28T21:42:21.353Z,98755.88
2022-09-28T21:45:25.527Z,98756.22
2022-09-28T21:48:29.485Z,98760.94
2022-09-28T21:51:32.657Z,98756.84
2022-09-28T21:54:37.499Z,98754.34
2022-09-28T21:57:40.120Z,98755.06
2022-09-28T22:00:43.043Z,98760.66
2022-09-28T22:03:49.084Z,98773.37
2022-09-28T22:06:51.730Z,98774.84
2022-09-28T22:09:55.619Z,98776.81
2022-09-28T22:12:58.263Z,98774.59
2022-09-28T22:16:01.554Z,98778.22
2022-09-28T22:19:04.234Z,98788.53
2022-09-28T22:22:07.656Z,98793.81
2022-09-28T22:25:10.439Z,98795.19
2022-09-28T22:28:13.409Z,98803.06
2022-09-28T22:31:17.606Z,98800.69
2022-09-28T22:34:20.741Z,98798.25
2022-09-28T22:37:24.122Z,98784.38
2022-09-28T22:40:27.576Z,98799.56
2022-09-28T22:43:30.575Z,98801.94
2022-09-28T22:46:33.672Z,98788.25
2022-09-28T22:49:36.554Z,98796.09
2022-09-28T22:52:39.485Z,98799.19
2022-09-28T22:55:42.352Z,98802.22
2022-09-28T22:58:46.542Z,98804.16
2022-09-28T23:01:51.719Z,98809.38
2022-09-28T23:04:54.653Z,98804.50
2022-09-28T23:07:58.385Z,98801.00
2022-09-28T23:11:01.857Z,98808.59
2022-09-28T23:14:05.524Z,98803.63
2022-09-28T23:17:08.542Z,98810.13
2022-09-28T23:20:11.138Z,98804.84
2022-09-28T23:23:14.041Z,98811.41
2022-09-28T23:26:20.197Z,98802.97
2022-09-28T23:29:23.039Z,98814.81
2022-09-28T23:32:29.777Z,98815.72
2022-09-28T23:35:34.719Z,98809.34
2022-09-28T23:38:37.428Z,98809.16
2022-09-28T23:41:40.487Z,98809.25
2022-09-28T23:44:43.114Z,98811.00
2022-09-28T23:47:46.079Z,98815.25
2022-09-28T23:50:48.949Z,98823.56
2022-09-28T23:53:51.888Z,98827.09
2022-09-28T23:56:54.516Z,98835.47
2022-09-28T23:59:57.488Z,98842.13
